Time;durP1;ratioP1;P1;durP2;ratioP2;P2;SDS_P1;SDS_P2;PMS_P1;PMS_P2;Temp;Humidity;BMP_temperature;BMP_pressure;BME280_temperature;BME280_humidity;BME280_pressure;Samples;Min_cycle;Max_cycle;Signal;HPM_P1;HPM_P2
2022/03/08 00:00:28;;;;;;;4.60;4.18;;;6.20;99.20;;;;;;5039099;28;20296;-53
2022/03/08 00:02:58;;;;;;;4.95;4.28;;;6.10;98.80;;;;;;5048910;28;20220;-53
2022/03/08 00:05:27;;;;;;;4.82;4.40;;;6.10;98.80;;;;;;5048850;28;20266;-53
2022/03/08 00:07:56;;;;;;;5.07;4.60;;;6.10;98.80;;;;;;5046885;28;20192;-53
2022/03/08 00:10:25;;;;;;;5.50;4.45;;;6.10;98.30;;;;;;5050974;28;20219;-53
2022/03/08 00:12:54;;;;;;;4.38;3.97;;;6.10;99.30;;;;;;5053848;28;20212;-54
2022/03/08 00:15:26;;;;;;;5.45;4.13;;;6.10;98.80;;;;;;5039055;28;20699;-54
2022/03/08 00:17:55;;;;;;;4.97;4.47;;;6.10;98.40;;;;;;5053022;28;20192;-53
2022/03/08 00:20:25;;;;;;;3.70;3.40;;;6.10;98.80;;;;;;5049474;28;20220;-52
2022/03/08 00:22:53;;;;;;;4.53;4.13;;;6.10;99.00;;;;;;5033335;28;20221;-53
2022/03/08 00:25:22;;;;;;;4.25;3.85;;;6.10;98.90;;;;;;5048624;28;20691;-53
2022/03/08 00:27:50;;;;;;;3.72;3.42;;;6.10;98.90;;;;;;5052558;28;20671;-53
2022/03/08 00:30:20;;;;;;;3.65;3.22;;;6.10;98.90;;;;;;5050615;28;20255;-54
2022/03/08 00:32:52;;;;;;;4.90;4.40;;;6.10;98.80;;;;;;5053339;28;20243;-53
2022/03/08 00:35:22;;;;;;;4.13;3.83;;;6.10;98.80;;;;;;5048319;28;20335;-55
2022/03/08 00:37:51;;;;;;;4.60;4.20;;;6.10;98.60;;;;;;5033227;28;20197;-52
2022/03/08 00:40:21;;;;;;;4.97;4.57;;;6.10;98.30;;;;;;5040610;28;20216;-53
2022/03/08 00:42:51;;;;;;;5.53;4.47;;;6.10;98.20;;;;;;5052969;28;20299;-53
2022/03/08 00:45:20;;;;;;;5.20;4.70;;;6.10;97.60;;;;;;5030669;28;20684;-53
2022/03/08 00:47:48;;;;;;;4.55;4.15;;;6.00;97.90;;;;;;5052955;28;20196;-54
2022/03/08 00:50:20;;;;;;;5.07;4.20;;;6.00;98.20;;;;;;5049758;28;20216;-54
2022/03/08 00:52:49;;;;;;;5.03;4.50;;;6.00;98.20;;;;;;5031855;28;20287;-54
2022/03/08 00:55:19;;;;;;;4.38;3.97;;;6.00;98.00;;;;;;5046847;28;20247;-52
2022/03/08 00:57:52;;;;;;;4.80;4.07;;;6.00;97.30;;;;;;5034452;28;20189;-54
2022/03/08 01:00:22;;;;;;;6.30;4.35;;;6.00;98.30;;;;;;5039138;28;20221;-53
2022/03/08 01:02:51;;;;;;;4.45;4.05;;;6.00;98.00;;;;;;5039581;28;20215;-54
2022/03/08 01:05:22;;;;;;;4.95;3.97;;;6.00;98.00;;;;;;5048923;28;20311;-53
2022/03/08 01:08:01;;;;;;;5.03;4.45;;;6.00;97.30;;;;;;5039116;28;20599;-54
2022/03/08 01:10:31;;;;;;;6.15;5.00;;;6.00;97.70;;;;;;5002361;28;20597;-48
2022/03/08 01:13:00;;;;;;;6.63;4.28;;;6.00;97.50;;;;;;5030603;28;20279;-49
2022/03/08 01:15:28;;;;;;;5.05;4.55;;;6.00;97.70;;;;;;5031810;28;20700;-48
2022/03/08 01:17:57;;;;;;;3.92;3.53;;;6.00;98.30;;;;;;5028685;28;20214;-48
2022/03/08 01:20:28;;;;;;;4.80;4.13;;;6.00;98.30;;;;;;5012176;28;20308;-48
2022/03/08 01:22:57;;;;;;;5.50;5.00;;;6.00;98.40;;;;;;5031998;28;20209;-48
2022/03/08 01:25:25;;;;;;;4.57;4.18;;;6.00;98.10;;;;;;5030814;28;20217;-49
2022/03/08 01:27:54;;;;;;;4.95;3.67;;;6.00;98.40;;;;;;5014842;28;20568;-48
2022/03/08 01:30:24;;;;;;;4.18;3.78;;;6.00;98.10;;;;;;5028106;28;20271;-48
2022/03/08 01:32:53;;;;;;;6.68;4.30;;;6.00;97.60;;;;;;5032202;28;20704;-48
2022/03/08 01:35:22;;;;;;;4.57;4.18;;;6.00;98.00;;;;;;5027501;28;20259;-48
2022/03/08 01:37:52;;;;;;;4.05;3.65;;;6.00;98.00;;;;;;5012517;28;20201;-48
2022/03/08 01:40:22;;;;;;;4.90;4.30;;;6.00;97.70;;;;;;5020731;28;20603;-48
2022/03/08 01:42:52;;;;;;;5.55;5.05;;;5.90;97.80;;;;;;5032167;28;20213;-48
2022/03/08 01:45:23;;;;;;;4.82;4.38;;;5.90;98.00;;;;;;5030174;28;20427;-48
2022/03/08 01:47:52;;;;;;;6.70;4.40;;;5.90;97.90;;;;;;5014119;28;20201;-48
2022/03/08 01:50:21;;;;;;;5.82;5.22;;;5.90;97.70;;;;;;5027974;28;20232;-48
2022/03/08 01:52:52;;;;;;;5.57;4.80;;;5.90;97.20;;;;;;5012133;28;20217;-48
2022/03/08 01:55:21;;;;;;;4.80;4.28;;;5.90;97.40;;;;;;5026413;28;20225;-48
2022/03/08 01:57:51;;;;;;;4.88;3.90;;;5.90;97.90;;;;;;5030716;28;20189;-48
2022/03/08 02:00:24;;;;;;;4.75;4.25;;;5.90;97.70;;;;;;5012590;28;20221;-48
2022/03/08 02:02:53;;;;;;;3.85;3.55;;;5.90;98.70;;;;;;5013830;28;20623;-48
2022/03/08 02:05:23;;;;;;;4.72;4.22;;;5.90;98.20;;;;;;5027123;28;20726;-48
2022/03/08 02:07:53;;;;;;;5.75;3.65;;;5.90;98.00;;;;;;5017168;28;20272;-48
2022/03/08 02:10:22;;;;;;;4.40;3.95;;;5.90;98.90;;;;;;5030805;28;20225;-49
2022/03/08 02:12:51;;;;;;;4.75;3.92;;;5.90;98.40;;;;;;5030769;28;20217;-48
2022/03/08 02:15:22;;;;;;;3.75;3.45;;;5.90;98.00;;;;;;5028787;28;20263;-48
2022/03/08 02:17:50;;;;;;;4.65;4.00;;;5.90;98.40;;;;;;5043771;28;20184;-48
2022/03/08 02:20:19;;;;;;;5.20;4.22;;;5.90;98.30;;;;;;5038075;28;20237;-48
2022/03/08 02:22:50;;;;;;;4.65;3.95;;;5.90;98.60;;;;;;5011421;28;20577;-49
2022/03/08 02:25:20;;;;;;;4.60;4.22;;;5.90;98.40;;;;;;5020379;28;20227;-49
2022/03/08 02:27:50;;;;;;;4.25;3.85;;;5.90;98.40;;;;;;5030601;28;20288;-48
2022/03/08 02:30:20;;;;;;;4.28;3.90;;;5.90;98.50;;;;;;5024519;28;20279;-48
2022/03/08 02:32:50;;;;;;;3.30;3.00;;;5.90;98.60;;;;;;5031334;28;20214;-47
2022/03/08 02:35:20;;;;;;;4.40;4.00;;;5.90;98.60;;;;;;5027393;28;20229;-48
2022/03/08 02:37:52;;;;;;;4.75;4.30;;;5.90;98.50;;;;;;5011202;28;20232;-47
2022/03/08 02:40:22;;;;;;;4.50;3.60;;;5.90;98.60;;;;;;5019112;28;20336;-48
2022/03/08 02:42:51;;;;;;;3.95;3.55;;;5.90;98.50;;;;;;5030983;28;20217;-48
2022/03/08 02:45:21;;;;;;;4.07;3.60;;;5.90;98.60;;;;;;5027854;28;20209;-48
2022/03/08 02:47:49;;;;;;;4.20;3.80;;;5.90;98.60;;;;;;5030991;28;20189;-47
2022/03/08 02:50:18;;;;;;;3.50;3.20;;;5.90;98.80;;;;;;5027317;28;20460;-48
2022/03/08 02:52:51;;;;;;;4.88;4.13;;;5.90;98.80;;;;;;5010714;28;20225;-48
2022/03/08 02:55:23;;;;;;;4.00;3.60;;;5.90;98.90;;;;;;5024921;28;20216;-48
2022/03/08 02:57:52;;;;;;;3.97;3.45;;;5.90;99.40;;;;;;5030981;28;20560;-47
2022/03/08 03:00:22;;;;;;;4.47;3.75;;;5.90;98.90;;;;;;5015794;28;20268;-49
2022/03/08 03:02:51;;;;;;;4.95;4.55;;;5.90;98.80;;;;;;5019740;28;20207;-48
2022/03/08 03:05:19;;;;;;;5.85;4.00;;;5.90;98.80;;;;;;5026769;28;20322;-50
2022/03/08 03:07:48;;;;;;;4.75;4.35;;;5.90;98.10;;;;;;5017795;28;20189;-49
2022/03/08 03:10:18;;;;;;;5.07;4.57;;;5.80;97.70;;;;;;5029847;28;20225;-50
2022/03/08 03:12:48;;;;;;;5.60;5.05;;;5.80;96.90;;;;;;5037319;28;20204;-49
2022/03/08 03:15:18;;;;;;;4.50;4.10;;;5.80;97.70;;;;;;5024574;28;20476;-49
2022/03/08 03:17:47;;;;;;;5.40;4.78;;;5.80;97.80;;;;;;5033870;28;20420;-49
2022/03/08 03:20:17;;;;;;;3.60;3.30;;;5.80;98.30;;;;;;5032084;28;20243;-48
2022/03/08 03:22:46;;;;;;;4.57;3.70;;;5.80;98.50;;;;;;5033962;28;20557;-49
2022/03/08 03:25:16;;;;;;;4.70;4.30;;;5.80;98.50;;;;;;5033336;28;20251;-49
2022/03/08 03:27:44;;;;;;;4.60;4.20;;;5.80;98.00;;;;;;5034389;28;20196;-48
2022/03/08 03:30:16;;;;;;;3.80;3.50;;;5.80;97.70;;;;;;5033372;28;20568;-48
2022/03/08 03:32:46;;;;;;;4.35;3.95;;;5.70;97.60;;;;;;5014934;28;20213;-50
2022/03/08 03:35:15;;;;;;;3.50;3.20;;;5.70;98.10;;;;;;5028195;28;20225;-49
2022/03/08 03:37:43;;;;;;;4.78;4.38;;;5.70;98.30;;;;;;5031483;28;20192;-50
2022/03/08 03:40:12;;;;;;;4.38;4.00;;;5.70;98.10;;;;;;5033410;28;20224;-50
2022/03/08 03:42:40;;;;;;;4.28;3.83;;;5.70;98.00;;;;;;5034076;28;20287;-49
2022/03/08 03:45:09;;;;;;;3.95;3.65;;;5.70;98.30;;;;;;5026442;28;20221;-49
2022/03/08 03:47:39;;;;;;;4.85;4.07;;;5.70;97.80;;;;;;5014589;28;20225;-48
2022/03/08 03:50:09;;;;;;;4.18;3.78;;;5.70;98.00;;;;;;5028752;28;20582;-49
2022/03/08 03:52:37;;;;;;;3.80;3.45;;;5.70;98.30;;;;;;5014281;28;20326;-49
2022/03/08 03:55:12;;;;;;;5.78;4.72;;;5.70;98.60;;;;;;5031524;28;20235;-50
2022/03/08 03:57:44;;;;;;;5.00;4.35;;;5.70;98.20;;;;;;5033726;28;20186;-49
2022/03/08 04:00:14;;;;;;;5.10;4.60;;;5.70;98.60;;;;;;5032281;28;20244;-49
2022/03/08 04:02:45;;;;;;;4.35;3.95;;;5.70;98.60;;;;;;5033696;28;20233;-48
2022/03/08 04:05:13;;;;;;;5.28;4.78;;;5.70;98.20;;;;;;5013551;28;20299;-48
2022/03/08 04:07:42;;;;;;;5.05;4.20;;;5.70;97.30;;;;;;5032170;28;20193;-49
2022/03/08 04:10:11;;;;;;;3.80;3.40;;;5.70;97.80;;;;;;5033365;28;20221;-49
2022/03/08 04:12:40;;;;;;;4.93;4.25;;;5.70;98.20;;;;;;5033273;28;20703;-49
2022/03/08 04:15:10;;;;;;;4.78;4.28;;;5.70;97.80;;;;;;5015714;28;20220;-49
2022/03/08 04:17:38;;;;;;;7.90;4.35;;;5.70;97.40;;;;;;5024771;28;20481;-49
2022/03/08 04:20:10;;;;;;;4.22;3.85;;;5.70;98.00;;;;;;5032028;28;20673;-50
2022/03/08 04:22:38;;;;;;;4.78;3.90;;;5.70;97.90;;;;;;5026186;28;20211;-50
2022/03/08 04:25:08;;;;;;;4.05;3.58;;;5.60;98.10;;;;;;5032534;28;20224;-48
2022/03/08 04:27:37;;;;;;;4.85;4.38;;;5.70;98.40;;;;;;5032739;28;20648;-49
2022/03/08 04:30:07;;;;;;;4.53;4.13;;;5.60;98.30;;;;;;5022431;28;20239;-49
2022/03/08 04:32:35;;;;;;;4.15;3.80;;;5.60;98.50;;;;;;5024014;28;20283;-48
2022/03/08 04:35:05;;;;;;;6.10;3.90;;;5.60;98.00;;;;;;5032388;28;20279;-49
2022/03/08 04:37:35;;;;;;;5.10;4.60;;;5.60;98.30;;;;;;5031615;28;20193;-49
2022/03/08 04:40:04;;;;;;;4.00;3.60;;;5.60;97.70;;;;;;5014862;28;20632;-49
2022/03/08 04:42:33;;;;;;;5.38;4.88;;;5.60;97.40;;;;;;5032756;28;20209;-50
2022/03/08 04:45:01;;;;;;;6.10;4.85;;;5.60;97.60;;;;;;5030475;28;20244;-48
2022/03/08 04:47:29;;;;;;;4.57;4.07;;;5.60;97.50;;;;;;5038350;28;20189;-49
2022/03/08 04:49:58;;;;;;;5.85;4.70;;;5.60;97.60;;;;;;5051039;28;20569;-48
2022/03/08 04:52:26;;;;;;;4.50;4.10;;;5.60;97.50;;;;;;5018535;28;20236;-49
2022/03/08 04:54:56;;;;;;;3.90;3.55;;;5.50;97.10;;;;;;5031680;28;20237;-49
2022/03/08 04:57:24;;;;;;;4.80;3.78;;;5.50;97.50;;;;;;5032894;28;20715;-49
2022/03/08 04:59:52;;;;;;;5.40;4.53;;;5.50;97.50;;;;;;5020131;28;20701;-49
2022/03/08 05:02:20;;;;;;;5.68;4.50;;;5.50;97.50;;;;;;5033106;28;20629;-49
2022/03/08 05:04:48;;;;;;;5.30;4.65;;;5.50;97.10;;;;;;5031565;28;20271;-49
2022/03/08 05:07:17;;;;;;;5.38;4.53;;;5.50;96.80;;;;;;5014513;28;20201;-48
2022/03/08 05:09:45;;;;;;;4.75;4.20;;;5.50;97.10;;;;;;5020168;28;20646;-49
2022/03/08 05:12:14;;;;;;;4.70;4.30;;;5.50;97.10;;;;;;5032331;28;20213;-49
2022/03/08 05:14:42;;;;;;;4.55;3.95;;;5.40;97.20;;;;;;5022410;28;20220;-48
2022/03/08 05:17:10;;;;;;;5.68;4.53;;;5.40;97.10;;;;;;5032922;28;20196;-48
2022/03/08 05:19:39;;;;;;;5.95;4.90;;;5.40;96.60;;;;;;5031684;28;20676;-48
2022/03/08 05:22:07;;;;;;;5.05;3.88;;;5.40;96.50;;;;;;5015424;28;20482;-49
2022/03/08 05:24:35;;;;;;;5.32;4.82;;;5.40;97.10;;;;;;5024562;28;20422;-48
2022/03/08 05:27:03;;;;;;;4.72;4.20;;;5.40;96.70;;;;;;5032843;28;20199;-50
2022/03/08 05:29:33;;;;;;;5.00;4.50;;;5.40;97.10;;;;;;5019248;28;20709;-49
2022/03/08 05:32:01;;;;;;;4.30;3.90;;;5.40;97.10;;;;;;5012837;28;20237;-49
2022/03/08 05:34:30;;;;;;;6.40;4.30;;;5.40;97.50;;;;;;5030920;28;20759;-49
2022/03/08 05:36:58;;;;;;;3.90;3.60;;;5.40;97.10;;;;;;5012305;28;20248;-50
2022/03/08 05:39:26;;;;;;;5.57;4.97;;;5.40;97.10;;;;;;5030659;28;20711;-50
2022/03/08 05:41:57;;;;;;;4.70;4.30;;;5.40;96.90;;;;;;5031991;28;20229;-49
2022/03/08 05:44:25;;;;;;;4.65;4.15;;;5.40;96.70;;;;;;5029985;28;20699;-49
2022/03/08 05:46:55;;;;;;;5.95;4.35;;;5.30;96.70;;;;;;5031356;28;20190;-49
2022/03/08 05:49:24;;;;;;;6.85;5.70;;;5.30;96.50;;;;;;5031536;28;20331;-48
2022/03/08 05:51:53;;;;;;;5.60;5.00;;;5.30;96.40;;;;;;5033871;28;20231;-49
2022/03/08 05:54:22;;;;;;;5.10;4.60;;;5.30;96.60;;;;;;5050950;28;20685;-49
2022/03/08 05:56:53;;;;;;;4.70;4.20;;;5.30;96.70;;;;;;5051650;28;20186;-49
2022/03/08 05:59:21;;;;;;;4.72;3.78;;;5.20;97.00;;;;;;5040357;28;20205;-48
2022/03/08 06:01:49;;;;;;;7.10;4.90;;;5.30;97.00;;;;;;5021351;28;20209;-48
2022/03/08 06:04:19;;;;;;;5.20;4.10;;;5.30;97.00;;;;;;5012880;28;20221;-50
2022/03/08 06:06:49;;;;;;;4.68;4.00;;;5.30;97.00;;;;;;5016933;28;20538;-48
2022/03/08 06:09:18;;;;;;;4.38;3.97;;;5.30;97.00;;;;;;5011393;28;20233;-48
2022/03/08 06:11:46;;;;;;;4.32;3.72;;;5.30;97.00;;;;;;5046079;28;20208;-47
2022/03/08 06:14:14;;;;;;;4.65;4.25;;;5.30;97.00;;;;;;5027241;28;20301;-48
2022/03/08 06:16:43;;;;;;;5.30;4.55;;;5.30;97.00;;;;;;5041500;28;20661;-49
2022/03/08 06:19:11;;;;;;;4.25;3.95;;;5.30;97.50;;;;;;5033218;28;20216;-49
2022/03/08 06:21:40;;;;;;;5.40;4.90;;;5.30;97.00;;;;;;5021116;28;20209;-49
2022/03/08 06:24:11;;;;;;;4.53;4.10;;;5.30;97.00;;;;;;5030403;28;20631;-49
2022/03/08 06:26:40;;;;;;;5.07;4.57;;;5.30;97.00;;;;;;5040989;28;20185;-48
2022/03/08 06:29:13;;;;;;;5.00;4.50;;;5.20;97.00;;;;;;5025349;28;20256;-49
2022/03/08 06:31:42;;;;;;;4.97;4.47;;;5.30;97.00;;;;;;5031686;28;20216;-49
2022/03/08 06:34:10;;;;;;;4.03;3.63;;;5.20;97.00;;;;;;5030956;28;20232;-48
2022/03/08 06:36:43;;;;;;;4.97;3.85;;;5.20;96.90;;;;;;5024982;28;20185;-48
2022/03/08 06:39:11;;;;;;;4.85;4.43;;;5.30;97.00;;;;;;5011714;28;20275;-49
2022/03/08 06:41:44;;;;;;;5.43;3.90;;;5.30;96.20;;;;;;5050819;28;20208;-48
2022/03/08 06:44:12;;;;;;;5.95;4.32;;;5.30;97.00;;;;;;5037656;28;20217;-49
2022/03/08 06:46:44;;;;;;;5.40;4.25;;;5.20;97.00;;;;;;5020629;28;20201;-48
2022/03/08 06:49:13;;;;;;;5.35;4.70;;;5.20;97.00;;;;;;5049881;28;20219;-48
2022/03/08 06:51:43;;;;;;;4.90;4.40;;;5.20;97.00;;;;;;5035415;28;20220;-49
2022/03/08 06:54:16;;;;;;;4.30;3.90;;;5.20;97.00;;;;;;5029010;28;20228;-49
2022/03/08 06:56:44;;;;;;;6.15;4.88;;;5.20;97.00;;;;;;5031129;28;20216;-48
2022/03/08 06:59:12;;;;;;;5.68;4.20;;;5.20;97.00;;;;;;5030898;28;20273;-49
2022/03/08 07:01:40;;;;;;;6.55;4.80;;;5.20;97.00;;;;;;5039224;28;20307;-49
2022/03/08 07:04:09;;;;;;;4.70;3.90;;;5.20;96.20;;;;;;5049614;28;20247;-48
2022/03/08 07:06:37;;;;;;;5.60;5.10;;;5.20;96.80;;;;;;5035381;28;20193;-49
2022/03/08 07:09:10;;;;;;;6.03;4.93;;;5.20;96.30;;;;;;5029855;28;20232;-48
2022/03/08 07:11:40;;;;;;;5.68;4.47;;;5.20;96.10;;;;;;5030919;28;20220;-48
2022/03/08 07:14:08;;;;;;;5.32;4.82;;;5.20;96.20;;;;;;5027257;28;20228;-48
2022/03/08 07:16:40;;;;;;;6.97;4.50;;;5.10;96.30;;;;;;5031625;28;20254;-48
2022/03/08 07:19:08;;;;;;;5.38;4.88;;;5.20;96.20;;;;;;5035948;28;20564;-49
2022/03/08 07:21:36;;;;;;;5.88;5.13;;;5.10;96.10;;;;;;5032367;28;20299;-48
2022/03/08 07:24:05;;;;;;;4.72;4.32;;;5.10;96.20;;;;;;5049208;28;20224;-48
2022/03/08 07:26:35;;;;;;;4.15;3.75;;;5.10;96.60;;;;;;5050135;28;20223;-48
2022/03/08 07:29:05;;;;;;;4.40;4.00;;;5.10;95.90;;;;;;5039578;28;20212;-48
2022/03/08 07:31:34;;;;;;;5.15;3.95;;;5.10;96.10;;;;;;5033939;28;20720;-49
2022/03/08 07:34:02;;;;;;;6.45;4.60;;;5.10;96.20;;;;;;5028720;28;20256;-48
2022/03/08 07:36:32;;;;;;;6.60;5.20;;;5.10;96.10;;;;;;5022619;28;20280;-51
2022/03/08 07:39:00;;;;;;;5.55;5.05;;;5.10;96.10;;;;;;5029792;28;20213;-47
2022/03/08 07:41:31;;;;;;;4.90;4.50;;;5.10;96.10;;;;;;5030168;28;20224;-49
2022/03/08 07:44:03;;;;;;;5.57;5.07;;;5.10;96.30;;;;;;5028476;28;20216;-50
2022/03/08 07:46:34;;;;;;;5.00;4.60;;;5.10;96.00;;;;;;5027130;28;20212;-49
2022/03/08 07:49:06;;;;;;;5.70;4.53;;;5.10;96.00;;;;;;5028954;28;20266;-49
2022/03/08 07:51:50;;;;;;;4.85;4.00;;;5.10;96.00;;;;;;5020620;28;20209;-49
2022/03/08 07:54:19;;;;;;;5.75;5.18;;;5.10;96.10;;;;;;5028770;28;20255;-50
2022/03/08 07:56:47;;;;;;;5.47;4.43;;;5.20;95.90;;;;;;5029974;28;20196;-49
2022/03/08 07:59:17;;;;;;;6.18;4.90;;;5.20;95.80;;;;;;5033382;28;20765;-48
2022/03/08 08:01:48;;;;;;;4.70;3.97;;;5.20;96.10;;;;;;5021801;28;20219;-49
2022/03/08 08:04:21;;;;;;;4.65;3.50;;;5.20;96.70;;;;;;5031847;28;20885;-49
2022/03/08 08:06:49;;;;;;;5.50;4.20;;;5.30;96.90;;;;;;5029758;28;20602;-49
2022/03/08 08:09:18;;;;;;;4.65;4.25;;;5.30;96.80;;;;;;5050926;28;20231;-50
2022/03/08 08:11:51;;;;;;;4.38;3.53;;;5.30;96.80;;;;;;5048689;28;20305;-50
2022/03/08 08:14:22;;;;;;;4.45;4.03;;;5.30;97.00;;;;;;5031662;28;20311;-49
2022/03/08 08:16:51;;;;;;;4.13;3.72;;;5.40;97.00;;;;;;5020089;28;20206;-49
2022/03/08 08:19:20;;;;;;;4.35;3.95;;;5.40;96.80;;;;;;5049871;28;20243;-49
2022/03/08 08:21:48;;;;;;;4.47;3.78;;;5.40;96.90;;;;;;5030862;28;20212;-48
2022/03/08 08:24:17;;;;;;;4.15;3.75;;;5.40;96.70;;;;;;5038540;28;20620;-50
2022/03/08 08:26:46;;;;;;;5.20;4.00;;;5.40;96.90;;;;;;5020881;28;20196;-48
2022/03/08 08:29:14;;;;;;;3.75;3.45;;;5.40;96.90;;;;;;5044070;28;20628;-49
2022/03/08 08:31:46;;;;;;;3.70;3.40;;;5.40;96.90;;;;;;5031860;28;20217;-49
2022/03/08 08:34:15;;;;;;;3.55;3.22;;;5.50;97.10;;;;;;5052030;28;20599;-49
2022/03/08 08:36:47;;;;;;;4.28;3.80;;;5.50;97.10;;;;;;5020927;28;20199;-49
2022/03/08 08:39:20;;;;;;;4.30;3.80;;;5.50;97.10;;;;;;5022379;28;20564;-49
2022/03/08 08:41:48;;;;;;;4.30;3.75;;;5.50;97.10;;;;;;5033172;28;20716;-49
2022/03/08 08:44:17;;;;;;;4.32;3.70;;;5.50;97.10;;;;;;5026176;28;20728;-48
2022/03/08 08:46:49;;;;;;;4.00;3.60;;;5.50;97.10;;;;;;5050872;28;20192;-48
2022/03/08 08:49:17;;;;;;;4.68;4.05;;;5.50;97.10;;;;;;5050731;28;20666;-48
2022/03/08 08:51:46;;;;;;;3.92;3.47;;;5.50;97.10;;;;;;5033761;28;20213;-50
2022/03/08 08:54:15;;;;;;;4.80;3.72;;;5.50;97.10;;;;;;5048377;28;20307;-50
2022/03/08 08:56:43;;;;;;;4.70;4.15;;;5.50;97.10;;;;;;5052060;28;20191;-49
2022/03/08 08:59:13;;;;;;;5.43;3.30;;;5.50;97.10;;;;;;5020284;28;20293;-49
2022/03/08 09:01:42;;;;;;;3.55;3.05;;;5.50;97.10;;;;;;5033647;28;20212;-49
2022/03/08 09:04:13;;;;;;;4.13;3.72;;;5.50;97.10;;;;;;5031168;28;20221;-49
2022/03/08 09:06:44;;;;;;;3.55;3.25;;;5.50;97.10;;;;;;5021735;28;20322;-49
2022/03/08 09:09:12;;;;;;;5.53;4.45;;;5.60;97.10;;;;;;5038223;28;20219;-49
2022/03/08 09:11:41;;;;;;;3.75;3.42;;;5.60;97.10;;;;;;5051451;28;20211;-49
2022/03/08 09:14:09;;;;;;;3.78;3.25;;;5.60;97.10;;;;;;5041951;28;20241;-49
2022/03/08 09:16:38;;;;;;;3.85;3.45;;;5.60;97.10;;;;;;5036615;28;20699;-47
2022/03/08 09:19:06;;;;;;;4.10;3.72;;;5.60;97.10;;;;;;5035186;28;20710;-49
2022/03/08 09:21:36;;;;;;;3.90;3.55;;;5.60;97.10;;;;;;5023128;28;20220;-48
2022/03/08 09:24:05;;;;;;;3.83;3.42;;;5.60;97.10;;;;;;5031336;28;20217;-49
2022/03/08 09:26:35;;;;;;;4.05;3.65;;;5.60;97.10;;;;;;5035669;28;20211;-48
2022/03/08 09:29:03;;;;;;;4.10;3.75;;;5.60;97.10;;;;;;5038089;28;20218;-49
2022/03/08 09:31:32;;;;;;;5.63;4.03;;;5.60;97.10;;;;;;5015863;28;20649;-49
2022/03/08 09:34:00;;;;;;;4.30;3.90;;;5.60;97.10;;;;;;5030954;28;20217;-49
2022/03/08 09:36:29;;;;;;;4.82;3.85;;;5.60;97.10;;;;;;5022704;28;20443;-49
2022/03/08 09:38:59;;;;;;;4.35;3.63;;;5.60;97.10;;;;;;5030791;28;20296;-49
2022/03/08 09:41:29;;;;;;;3.50;3.20;;;5.60;97.10;;;;;;5021759;28;20226;-48
2022/03/08 09:43:59;;;;;;;3.60;3.25;;;5.70;97.20;;;;;;5025149;28;20247;-49
2022/03/08 09:46:28;;;;;;;3.55;3.25;;;5.60;97.10;;;;;;5027258;28;20189;-49
2022/03/08 09:48:57;;;;;;;3.83;3.50;;;5.70;97.10;;;;;;5031114;28;20220;-49
2022/03/08 09:51:25;;;;;;;5.65;4.35;;;5.70;96.70;;;;;;5040224;28;20209;-49
2022/03/08 09:53:55;;;;;;;5.25;3.58;;;5.70;96.50;;;;;;5046391;28;20213;-49
2022/03/08 09:56:26;;;;;;;4.38;3.95;;;5.70;96.30;;;;;;5030899;28;20561;-49
2022/03/08 09:58:54;;;;;;;3.15;2.85;;;5.70;96.30;;;;;;5030004;28;20627;-49
2022/03/08 10:01:23;;;;;;;4.32;3.60;;;5.70;96.10;;;;;;5013243;28;20209;-48
2022/03/08 10:03:52;;;;;;;3.50;2.90;;;5.70;96.00;;;;;;5030773;28;20861;-48
2022/03/08 10:06:21;;;;;;;4.68;2.92;;;5.70;96.20;;;;;;5020924;28;20205;-49
2022/03/08 10:08:49;;;;;;;3.47;3.17;;;5.70;96.00;;;;;;4993766;28;20221;-48
2022/03/08 10:11:18;;;;;;;3.97;3.58;;;5.80;95.80;;;;;;5011681;28;20209;-48
2022/03/08 10:13:52;;;;;;;3.78;3.42;;;5.80;95.90;;;;;;5010645;28;20221;-49
2022/03/08 10:16:24;;;;;;;3.45;3.13;;;5.70;95.70;;;;;;5013846;28;20213;-49
2022/03/08 10:18:55;;;;;;;5.43;3.40;;;5.80;95.90;;;;;;5030376;28;20217;-49
2022/03/08 10:21:29;;;;;;;4.90;3.90;;;5.70;95.80;;;;;;5029475;28;20219;-49
2022/03/08 10:23:59;;;;;;;3.22;2.85;;;5.70;95.90;;;;;;5030591;28;20311;-49
2022/03/08 10:26:27;;;;;;;3.13;2.92;;;5.70;95.80;;;;;;5031724;28;20187;-49
2022/03/08 10:28:59;;;;;;;3.45;3.10;;;5.70;95.90;;;;;;5045036;28;20254;-49
2022/03/08 10:31:28;;;;;;;3.15;2.50;;;5.70;95.50;;;;;;5024396;28;20216;-49
2022/03/08 10:34:05;;;;;;;3.58;3.00;;;5.70;95.40;;;;;;5035021;28;20217;-50
2022/03/08 10:36:36;;;;;;;3.65;3.35;;;5.70;95.20;;;;;;5018598;28;20213;-50
2022/03/08 10:39:07;;;;;;;3.53;3.22;;;5.70;95.10;;;;;;5017250;28;20217;-49
2022/03/08 10:41:48;;;;;;;2.90;2.70;;;5.80;95.30;;;;;;5033481;28;20296;-48
2022/03/08 10:44:31;;;;;;;3.03;2.83;;;5.70;95.00;;;;;;5026895;28;20512;-49
2022/03/08 10:47:05;;;;;;;4.30;3.25;;;5.80;95.20;;;;;;4994461;28;20577;-49
2022/03/08 10:49:35;;;;;;;2.90;2.60;;;5.70;95.10;;;;;;5030293;28;20232;-49
2022/03/08 10:52:05;;;;;;;3.92;3.40;;;5.70;95.20;;;;;;5026443;28;20224;-49
2022/03/08 10:54:35;;;;;;;3.67;2.92;;;5.70;95.10;;;;;;5029740;28;20587;-49
2022/03/08 10:57:03;;;;;;;3.63;2.90;;;5.70;95.10;;;;;;5034659;28;20299;-50
2022/03/08 10:59:33;;;;;;;3.60;2.70;;;5.70;95.10;;;;;;5031681;28;20722;-49
2022/03/08 11:02:20;;;;;;;3.30;2.92;;;5.70;95.10;;;;;;5021067;28;20219;-50
2022/03/08 11:04:49;;;;;;;4.20;2.95;;;5.70;95.20;;;;;;5029569;28;20227;-49
2022/03/08 11:07:17;;;;;;;3.30;3.00;;;5.70;95.30;;;;;;5021170;28;20200;-50
2022/03/08 11:09:47;;;;;;;3.42;3.13;;;5.70;95.40;;;;;;5030135;28;20244;-49
2022/03/08 11:12:16;;;;;;;3.22;2.92;;;5.70;95.20;;;;;;5038094;28;20683;-50
2022/03/08 11:14:46;;;;;;;3.30;3.00;;;5.70;94.90;;;;;;5033995;28;20224;-49
2022/03/08 11:17:14;;;;;;;3.63;3.33;;;5.70;95.50;;;;;;5030928;28;20308;-50
2022/03/08 11:19:44;;;;;;;3.05;2.75;;;5.70;94.80;;;;;;5029771;28;20217;-49
2022/03/08 11:22:13;;;;;;;3.13;2.80;;;5.70;95.20;;;;;;5029166;28;20220;-49
2022/03/08 11:24:41;;;;;;;2.70;2.50;;;5.70;95.10;;;;;;5028928;28;20253;-49
2022/03/08 11:27:10;;;;;;;5.18;2.97;;;5.70;95.20;;;;;;5039034;28;20189;-49
2022/03/08 11:29:39;;;;;;;2.83;2.45;;;5.70;95.40;;;;;;5040146;28;20270;-49
2022/03/08 11:32:15;;;;;;;3.20;2.90;;;5.70;95.40;;;;;;5032139;28;20201;-49
2022/03/08 11:34:51;;;;;;;3.45;2.95;;;5.70;95.50;;;;;;5038649;28;20225;-49
2022/03/08 11:37:21;;;;;;;3.55;3.22;;;5.70;95.30;;;;;;5021052;28;20221;-49
2022/03/08 11:40:05;;;;;;;3.03;2.72;;;5.70;95.50;;;;;;5043519;28;20212;-49
2022/03/08 11:42:36;;;;;;;2.80;2.53;;;5.70;95.40;;;;;;5036222;28;20215;-48
2022/03/08 11:45:11;;;;;;;2.97;2.65;;;5.70;94.90;;;;;;5025388;28;20223;-49
2022/03/08 11:47:43;;;;;;;2.85;2.65;;;5.70;95.10;;;;;;5028729;28;20184;-49
2022/03/08 11:50:22;;;;;;;3.75;2.85;;;5.70;95.20;;;;;;5033227;28;20702;-49
2022/03/08 11:53:04;;;;;;;3.20;2.88;;;5.70;95.20;;;;;;5014599;28;20245;-49
2022/03/08 11:55:34;;;;;;;3.58;2.60;;;5.70;95.20;;;;;;5044073;28;20216;-50
2022/03/08 11:58:03;;;;;;;5.35;3.00;;;5.70;95.40;;;;;;5046288;28;20190;-49
2022/03/08 12:00:41;;;;;;;5.00;3.72;;;5.70;95.40;;;;;;5035055;28;20770;-49
2022/03/08 12:03:19;;;;;;;3.65;3.35;;;5.70;95.20;;;;;;5033353;28;20465;-49
2022/03/08 12:05:55;;;;;;;2.95;2.70;;;5.70;95.10;;;;;;5027216;28;20268;-49
2022/03/08 12:09:00;;;;;;;3.50;3.20;;;5.70;95.40;;;;;;5016468;28;20668;-48
2022/03/08 12:11:40;;;;;;;3.80;3.03;;;5.70;95.40;;;;;;5033787;28;20220;-49
2022/03/08 12:14:28;;;;;;;3.25;2.95;;;5.70;95.50;;;;;;5029953;28;20227;-48
2022/03/08 12:17:12;;;;;;;3.20;2.90;;;5.70;95.80;;;;;;5022155;28;20205;-49
2022/03/08 12:19:44;;;;;;;2.80;2.45;;;5.70;95.50;;;;;;5033318;28;20300;-49
2022/03/08 12:22:15;;;;;;;3.60;3.30;;;5.70;95.70;;;;;;5036915;28;20216;-49
2022/03/08 12:24:47;;;;;;;3.08;2.80;;;5.70;95.40;;;;;;5052934;28;20695;-50
2022/03/08 12:27:16;;;;;;;3.28;2.97;;;5.70;95.70;;;;;;5053377;28;20231;-50
2022/03/08 12:29:58;;;;;;;2.97;2.67;;;5.70;95.60;;;;;;5028759;28;20731;-48
2022/03/08 12:32:39;;;;;;;4.60;3.33;;;5.70;95.90;;;;;;5053162;28;20212;-48
2022/03/08 12:35:17;;;;;;;3.05;2.85;;;5.70;95.70;;;;;;5050345;28;20216;-50
2022/03/08 12:37:52;;;;;;;3.30;2.63;;;5.70;95.60;;;;;;5013642;28;20221;-49
2022/03/08 12:40:28;;;;;;;2.65;2.33;;;5.70;95.80;;;;;;5026457;28;20212;-49
2022/03/08 12:43:00;;;;;;;3.97;2.92;;;5.70;95.80;;;;;;5029180;28;20238;-49
2022/03/08 12:45:30;;;;;;;2.95;2.75;;;5.70;95.90;;;;;;5032009;28;20259;-49
2022/03/08 12:48:05;;;;;;;3.17;2.80;;;5.70;95.80;;;;;;5032806;28;20256;-49
2022/03/08 12:50:38;;;;;;;2.85;2.53;;;5.70;96.00;;;;;;5033625;28;20205;-49
2022/03/08 12:53:10;;;;;;;3.03;2.72;;;5.70;96.10;;;;;;5031104;28;20754;-49
2022/03/08 12:55:41;;;;;;;2.70;2.50;;;5.70;96.00;;;;;;5032278;28;20209;-49
2022/03/08 12:58:11;;;;;;;3.78;2.80;;;5.70;96.10;;;;;;5033044;28;20621;-48
2022/03/08 13:00:42;;;;;;;3.05;2.60;;;5.70;96.20;;;;;;5029999;28;20241;-48
2022/03/08 13:03:12;;;;;;;3.38;3.08;;;5.70;96.10;;;;;;5043765;28;20227;-50
2022/03/08 13:05:44;;;;;;;3.00;2.70;;;5.70;96.10;;;;;;5027963;28;20638;-49
2022/03/08 13:08:13;;;;;;;2.83;2.50;;;5.70;96.20;;;;;;5023242;28;20186;-48
2022/03/08 13:10:45;;;;;;;3.17;2.47;;;5.70;96.20;;;;;;5032800;28;20228;-49
2022/03/08 13:13:38;;;;;;;3.60;3.05;;;5.70;96.30;;;;;;5032098;28;20308;-49